createdAt,value
2022-08-21T00:01:53.975Z,51.88
2022-08-21T00:04:22.408Z,51.70
2022-08-21T00:06:51.547Z,51.90
2022-08-21T00:09:20.148Z,43.60
2022-08-21T00:11:48.869Z,45.45
2022-08-21T00:14:17.009Z,46.33
2022-08-21T00:16:43.903Z,45.58
2022-08-21T00:19:11.249Z,42.00
2022-08-21T00:21:38.333Z,43.92
2022-08-21T00:24:05.976Z,44.80
2022-08-21T00:26:35.003Z,39.95
2022-08-21T00:29:05.032Z,40.88
2022-08-21T00:31:32.064Z,42.13
2022-08-21T00:34:01.036Z,41.22
2022-08-21T00:36:29.600Z,43.58
2022-08-21T00:38:57.147Z,50.13
2022-08-21T00:41:37.346Z,44.63
2022-08-21T00:44:09.168Z,44.75
2022-08-21T00:46:36.946Z,44.55
2022-08-21T00:49:05.755Z,51.55
2022-08-21T00:51:41.917Z,44.00
2022-08-21T00:54:13.005Z,47.63
2022-08-21T00:56:46.484Z,50.78
2022-08-21T00:59:14.483Z,47.20
2022-08-21T01:01:41.423Z,48.05
2022-08-21T01:04:08.537Z,48.28
2022-08-21T01:06:36.283Z,46.58
2022-08-21T01:09:04.541Z,49.35
2022-08-21T01:11:32.032Z,47.72
2022-08-21T01:13:59.825Z,44.72
2022-08-21T01:16:27.254Z,52.53
2022-08-21T01:18:54.110Z,50.35
2022-08-21T01:21:27.921Z,46.38
2022-08-21T01:23:57.627Z,48.95
2022-08-21T01:26:34.610Z,52.45
2022-08-21T01:29:20.367Z,50.70
2022-08-21T01:31:47.777Z,55.92
2022-08-21T01:34:16.639Z,50.80
2022-08-21T01:36:45.877Z,49.15
2022-08-21T01:39:13.224Z,56.50
2022-08-21T01:41:40.423Z,51.00
2022-08-21T01:44:07.414Z,51.13
2022-08-21T01:46:37.231Z,54.33
2022-08-21T01:49:06.358Z,52.95
2022-08-21T01:51:33.785Z,58.38
2022-08-21T01:54:00.755Z,53.85
2022-08-21T01:56:29.022Z,56.25
2022-08-21T01:58:56.159Z,54.60
2022-08-21T02:01:23.241Z,57.60
2022-08-21T02:03:51.172Z,58.75
2022-08-21T02:06:19.097Z,61.75
2022-08-21T02:08:47.303Z,58.88
2022-08-21T02:11:14.448Z,66.60
2022-08-21T02:13:41.637Z,62.47
2022-08-21T02:16:09.333Z,60.28
2022-08-21T02:18:36.451Z,64.07
2022-08-21T02:21:04.975Z,62.53
2022-08-21T02:23:32.775Z,61.67
2022-08-21T02:26:02.150Z,62.80
2022-08-21T02:28:29.506Z,66.10
2022-08-21T02:30:57.243Z,69.18
2022-08-21T02:33:25.215Z,63.13
2022-08-21T02:35:53.941Z,67.72
2022-08-21T02:38:28.400Z,68.40
2022-08-21T02:40:56.450Z,64.82
2022-08-21T02:43:25.752Z,69.82
2022-08-21T02:45:54.206Z,73.38
2022-08-21T02:48:24.844Z,69.50
2022-08-21T02:51:04.374Z,80.43
2022-08-21T02:53:32.213Z,73.88
2022-08-21T02:56:01.744Z,68.78
2022-08-21T02:58:32.458Z,72.22
2022-08-21T03:00:59.932Z,72.57
2022-08-21T03:03:27.989Z,75.28
2022-08-21T03:05:56.075Z,72.63
2022-08-21T03:08:24.294Z,77.53
2022-08-21T03:10:54.966Z,78.97
2022-08-21T03:13:22.642Z,76.55
2022-08-21T03:15:50.865Z,78.45
2022-08-21T03:18:18.734Z,82.20
2022-08-21T03:20:48.939Z,77.57
2022-08-21T03:23:18.478Z,77.70
2022-08-21T03:25:47.636Z,75.13
2022-08-21T03:28:22.603Z,71.72
2022-08-21T03:30:51.523Z,71.68
2022-08-21T03:33:20.537Z,76.28
2022-08-21T03:35:56.719Z,72.93
2022-08-21T03:38:26.655Z,75.80
2022-08-21T03:40:54.458Z,67.78
2022-08-21T03:43:22.160Z,81.30
2022-08-21T03:45:49.085Z,77.47
2022-08-21T03:48:16.193Z,82.25
2022-08-21T03:50:44.917Z,80.20
2022-08-21T03:53:17.470Z,79.15
2022-08-21T03:55:47.779Z,77.35
2022-08-21T04:00:49.933Z,77.10
2022-08-21T04:03:17.613Z,79.43
2022-08-21T04:05:46.331Z,81.45
2022-08-21T04:08:15.180Z,81.15
2022-08-21T04:10:44.817Z,82.00
2022-08-21T04:13:12.456Z,82.13
2022-08-21T04:15:39.917Z,81.78
2022-08-21T04:18:07.050Z,76.72
2022-08-21T04:20:34.558Z,85.18
2022-08-21T04:23:03.241Z,77.22
2022-08-21T04:25:30.866Z,79.05
2022-08-21T04:27:58.247Z,80.90
2022-08-21T04:30:28.208Z,83.85
2022-08-21T04:32:58.498Z,81.78
2022-08-21T04:35:27.970Z,82.70
2022-08-21T04:37:55.435Z,76.88
2022-08-21T04:40:25.170Z,79.68
2022-08-21T04:43:11.935Z,79.25
2022-08-21T04:45:42.486Z,80.88
2022-08-21T04:48:14.479Z,75.13
2022-08-21T04:50:57.407Z,76.45
2022-08-21T04:53:39.160Z,75.05
2022-08-21T04:56:10.964Z,79.72
2022-08-21T04:58:39.598Z,74.88
2022-08-21T05:01:12.741Z,73.75
2022-08-21T05:03:42.148Z,74.32
2022-08-21T05:08:40.661Z,73.82
2022-08-21T05:11:07.989Z,78.47
2022-08-21T05:13:34.985Z,71.10
2022-08-21T05:16:02.140Z,76.63
2022-08-21T05:18:29.334Z,72.22
2022-08-21T05:20:56.187Z,73.15
2022-08-21T05:23:23.385Z,75.90
2022-08-21T05:25:50.399Z,75.75
2022-08-21T05:28:17.358Z,74.68
2022-08-21T05:30:47.220Z,76.32
2022-08-21T05:33:14.266Z,75.78
2022-08-21T05:35:41.736Z,80.78
2022-08-21T05:38:16.842Z,75.25
2022-08-21T05:40:47.458Z,76.75
2022-08-21T05:43:15.336Z,76.53
2022-08-21T05:45:44.216Z,72.90
2022-08-21T05:48:16.405Z,71.00
2022-08-21T05:50:44.753Z,78.75
2022-08-21T05:53:12.768Z,77.50
2022-08-21T05:55:45.843Z,76.75
2022-08-21T05:58:18.810Z,75.45
2022-08-21T06:00:48.377Z,73.28
2022-08-21T06:05:46.767Z,75.40
2022-08-21T06:08:15.273Z,72.38
2022-08-21T06:10:42.714Z,76.88
2022-08-21T06:13:10.996Z,73.68
2022-08-21T06:15:38.951Z,68.47
2022-08-21T06:18:06.562Z,68.38
2022-08-21T06:20:33.760Z,65.90
2022-08-21T06:23:01.570Z,68.50
2022-08-21T06:25:29.274Z,64.72
2022-08-21T06:28:03.926Z,62.53
2022-08-21T06:30:31.474Z,64.53
2022-08-21T06:32:58.954Z,67.18
2022-08-21T06:35:26.129Z,60.42
2022-08-21T06:37:53.448Z,65.63
2022-08-21T06:40:20.543Z,62.92
2022-08-21T06:42:53.489Z,60.65
2022-08-21T06:45:22.030Z,62.97
2022-08-21T06:47:49.323Z,64.78
2022-08-21T06:50:16.301Z,58.65
2022-08-21T06:52:43.497Z,58.20
2022-08-21T06:55:11.245Z,55.17
2022-08-21T06:57:38.969Z,51.70
2022-08-21T07:00:08.115Z,50.58
2022-08-21T07:02:35.368Z,52.92
2022-08-21T07:05:17.787Z,49.60
2022-08-21T07:07:47.414Z,52.45
2022-08-21T07:10:21.741Z,47.95
2022-08-21T07:12:59.518Z,51.35
2022-08-21T07:15:32.593Z,49.63
2022-08-21T07:18:00.875Z,47.03
2022-08-21T07:20:29.548Z,49.35
2022-08-21T07:23:00.756Z,50.47
2022-08-21T07:25:28.622Z,50.72
2022-08-21T07:27:56.375Z,46.38
2022-08-21T07:30:23.860Z,42.40
2022-08-21T07:32:51.449Z,45.08
2022-08-21T07:35:20.394Z,44.22
2022-08-21T07:37:47.614Z,47.77
2022-08-21T07:40:16.629Z,44.70
2022-08-21T07:42:47.842Z,46.83
2022-08-21T07:45:15.199Z,46.15
2022-08-21T07:47:43.136Z,44.22
2022-08-21T07:50:14.888Z,45.35
2022-08-21T07:52:43.031Z,48.25
2022-08-21T07:55:12.753Z,46.35
2022-08-21T07:57:39.849Z,43.03
2022-08-21T08:00:10.832Z,42.40
2022-08-21T08:02:41.794Z,43.78
2022-08-21T08:05:12.104Z,39.58
2022-08-21T08:07:39.462Z,41.83
2022-08-21T08:10:08.762Z,33.25
2022-08-21T08:12:38.355Z,36.95
2022-08-21T08:17:33.488Z,34.58
2022-08-21T08:20:01.932Z,32.70
2022-08-21T08:22:30.702Z,32.30
2022-08-21T08:24:58.115Z,33.00
2022-08-21T08:27:25.059Z,33.33
2022-08-21T08:29:52.500Z,35.40
2022-08-21T08:32:20.527Z,37.58
2022-08-21T08:34:50.434Z,37.08
2022-08-21T08:37:17.411Z,38.78
2022-08-21T08:39:45.410Z,37.05
2022-08-21T08:45:07.915Z,34.17
2022-08-21T08:47:39.769Z,31.98
2022-08-21T08:50:22.694Z,31.65
2022-08-21T08:53:01.979Z,32.40
2022-08-21T08:55:40.383Z,33.53
2022-08-21T08:58:08.203Z,34.08
2022-08-21T09:00:35.468Z,33.20
2022-08-21T09:03:04.451Z,29.35
2022-08-21T09:05:47.962Z,28.83
2022-08-21T09:08:41.201Z,25.88
2022-08-21T09:11:28.057Z,25.98
2022-08-21T09:14:02.822Z,31.73
2022-08-21T09:16:40.613Z,27.30
2022-08-21T09:19:44.856Z,29.42
2022-08-21T09:22:36.976Z,26.95
2022-08-21T09:25:08.865Z,28.20
2022-08-21T09:27:37.638Z,28.65
2022-08-21T09:30:07.760Z,26.43
2022-08-21T09:32:37.829Z,26.25
2022-08-21T09:35:21.032Z,25.90
2022-08-21T09:37:52.832Z,26.48
2022-08-21T09:40:32.165Z,27.77
2022-08-21T09:43:09.893Z,27.05
2022-08-21T09:45:37.708Z,26.13
2022-08-21T09:48:14.385Z,29.73
2022-08-21T09:50:43.736Z,24.10
2022-08-21T09:53:23.817Z,26.70
2022-08-21T09:56:25.115Z,24.77
2022-08-21T09:58:52.868Z,30.20
2022-08-21T10:01:26.063Z,25.33
2022-08-21T10:04:09.483Z,29.70
2022-08-21T10:06:37.492Z,26.35
2022-08-21T10:09:21.090Z,32.10
2022-08-21T10:12:13.235Z,25.77
2022-08-21T10:15:11.316Z,29.70
2022-08-21T10:17:52.051Z,32.03
2022-08-21T10:20:29.905Z,26.70
2022-08-21T10:23:32.447Z,27.45
2022-08-21T10:26:14.223Z,24.95
2022-08-21T10:28:53.706Z,27.00
2022-08-21T10:31:38.782Z,27.42
2022-08-21T10:34:24.704Z,25.77
2022-08-21T10:37:17.665Z,27.13
2022-08-21T10:39:44.901Z,27.50
2022-08-21T10:42:33.356Z,18.65
2022-08-21T10:45:03.399Z,20.47
2022-08-21T10:47:38.916Z,22.40
2022-08-21T10:50:25.133Z,28.73
2022-08-21T10:53:15.085Z,26.15
2022-08-21T10:55:49.213Z,27.50
2022-08-21T10:58:25.484Z,25.98
2022-08-21T11:01:01.934Z,24.67
2022-08-21T11:03:28.916Z,23.08
2022-08-21T11:06:03.563Z,24.67
2022-08-21T11:08:43.503Z,21.10
2022-08-21T11:11:23.718Z,23.83
2022-08-21T11:13:59.754Z,21.58
2022-08-21T11:16:37.671Z,26.40
2022-08-21T11:19:23.521Z,20.65
2022-08-21T11:22:01.510Z,23.75
2022-08-21T11:24:34.293Z,19.08
2022-08-21T11:27:04.530Z,22.40
2022-08-21T11:29:37.188Z,19.55
2022-08-21T11:32:54.102Z,23.50
2022-08-21T11:35:27.029Z,20.58
2022-08-21T11:38:00.062Z,25.00
2022-08-21T11:40:53.530Z,21.65
2022-08-21T11:43:20.703Z,22.08
2022-08-21T11:45:57.594Z,26.92
2022-08-21T11:48:39.912Z,26.38
2022-08-21T11:51:23.277Z,25.02
2022-08-21T11:54:07.407Z,23.48
2022-08-21T11:56:43.369Z,22.80
2022-08-21T11:59:22.147Z,24.75
2022-08-21T12:01:52.335Z,25.23
2022-08-21T12:04:32.357Z,25.25
2022-08-21T12:07:16.739Z,22.77
2022-08-21T12:09:56.104Z,26.77
2022-08-21T12:15:07.145Z,31.77
2022-08-21T12:17:39.703Z,29.65
2022-08-21T12:20:16.130Z,32.13
2022-08-21T12:22:53.248Z,33.47
2022-08-21T12:25:23.329Z,30.80
2022-08-21T12:28:08.584Z,36.13
2022-08-21T12:30:40.290Z,34.22
2022-08-21T12:33:33.905Z,37.72
2022-08-21T12:36:22.184Z,40.53
2022-08-21T12:39:07.178Z,41.42
2022-08-21T12:42:07.595Z,40.08
2022-08-21T12:44:41.068Z,44.13
2022-08-21T12:47:18.317Z,42.35
2022-08-21T12:50:01.615Z,44.03
2022-08-21T12:52:41.097Z,43.03
2022-08-21T12:55:17.066Z,47.38
2022-08-21T12:57:44.480Z,48.72
2022-08-21T13:00:15.198Z,46.38
2022-08-21T13:02:49.407Z,47.67
2022-08-21T13:05:28.400Z,39.00
2022-08-21T13:07:58.988Z,41.70
2022-08-21T13:10:30.448Z,40.97
2022-08-21T13:13:01.607Z,40.17
2022-08-21T13:15:47.616Z,43.88
2022-08-21T13:18:29.061Z,41.78
2022-08-21T13:21:13.130Z,41.08
2022-08-21T13:23:40.230Z,43.25
2022-08-21T13:26:20.348Z,41.75
2022-08-21T13:28:48.590Z,36.88
2022-08-21T13:31:28.046Z,36.63
2022-08-21T13:33:56.320Z,40.53
2022-08-21T13:36:52.740Z,36.05
2022-08-21T13:39:21.116Z,43.47
2022-08-21T13:41:51.889Z,39.70
2022-08-21T13:44:21.150Z,33.75
2022-08-21T13:46:49.456Z,40.33
2022-08-21T13:49:22.230Z,38.92
2022-08-21T13:51:49.331Z,35.22
2022-08-21T13:54:28.251Z,29.85
2022-08-21T13:56:56.329Z,26.90
2022-08-21T13:59:31.947Z,18.73
2022-08-21T14:02:10.745Z,13.48
2022-08-21T14:04:53.329Z,14.40
2022-08-21T14:07:42.135Z,13.90
2022-08-21T14:10:24.611Z,10.37
2022-08-21T14:12:56.026Z,8.70
2022-08-21T14:15:29.799Z,7.63
2022-08-21T14:18:18.583Z,6.80
2022-08-21T14:20:46.150Z,8.35
2022-08-21T14:23:14.713Z,7.20
2022-08-21T14:25:44.729Z,6.85
2022-08-21T14:28:29.009Z,7.60
2022-08-21T14:30:57.783Z,12.18
2022-08-21T14:33:29.631Z,8.43
2022-08-21T14:35:56.534Z,7.35
2022-08-21T14:38:26.351Z,10.52
2022-08-21T14:40:58.934Z,19.88
2022-08-21T14:43:28.539Z,26.05
2022-08-21T14:48:23.269Z,43.72
2022-08-21T14:50:50.419Z,43.38
2022-08-21T14:53:20.310Z,48.20
2022-08-21T14:56:05.827Z,51.53
2022-08-21T14:58:41.420Z,47.55
2022-08-21T15:01:11.638Z,48.53
2022-08-21T15:03:39.096Z,51.20
2022-08-21T15:06:07.699Z,48.65
2022-08-21T15:08:35.334Z,50.38
2022-08-21T15:11:18.544Z,56.25
2022-08-21T15:13:58.959Z,54.70
2022-08-21T15:16:28.180Z,58.50
2022-08-21T15:18:56.047Z,57.10
2022-08-21T15:21:23.135Z,53.72
2022-08-21T15:23:50.384Z,56.58
2022-08-21T15:26:17.467Z,56.28
2022-08-21T15:28:44.557Z,55.65
2022-08-21T15:31:11.717Z,52.55
2022-08-21T15:33:38.678Z,54.17
2022-08-21T15:36:05.993Z,56.72
2022-08-21T15:38:33.198Z,60.05
2022-08-21T15:41:00.503Z,55.53
2022-08-21T15:43:34.398Z,54.50
2022-08-21T15:46:02.736Z,54.30
2022-08-21T15:48:30.098Z,53.55
2022-08-21T15:50:57.192Z,55.28
2022-08-21T15:53:24.486Z,52.28
2022-08-21T15:55:51.650Z,57.28
2022-08-21T15:58:21.677Z,56.78
2022-08-21T16:00:48.985Z,51.88
2022-08-21T16:03:23.370Z,50.22
2022-08-21T16:05:53.330Z,51.15
2022-08-21T16:08:21.651Z,53.10
2022-08-21T16:10:49.003Z,48.00
2022-08-21T16:13:23.801Z,47.15
2022-08-21T16:15:51.150Z,52.13
2022-08-21T16:18:20.117Z,47.15
2022-08-21T16:20:47.823Z,52.15
2022-08-21T16:23:15.239Z,44.00
2022-08-21T16:25:43.992Z,52.03
2022-08-21T16:28:15.789Z,46.17
2022-08-21T16:30:47.624Z,43.75
2022-08-21T16:33:25.055Z,45.92
2022-08-21T16:35:52.429Z,41.38
2022-08-21T16:38:19.914Z,44.03
2022-08-21T16:40:47.095Z,43.20
2022-08-21T16:43:15.099Z,39.95
2022-08-21T16:45:44.180Z,38.85
2022-08-21T16:48:11.325Z,36.35
2022-08-21T16:50:39.289Z,38.47
2022-08-21T16:53:07.145Z,34.63
2022-08-21T16:55:57.294Z,35.17
2022-08-21T16:58:30.188Z,38.20
2022-08-21T17:00:59.207Z,33.20
2022-08-21T17:03:35.020Z,34.67
2022-08-21T17:06:02.465Z,31.27
2022-08-21T17:08:29.364Z,33.42
2022-08-21T17:10:57.035Z,31.25
2022-08-21T17:13:25.841Z,30.65
2022-08-21T17:15:53.660Z,30.60
2022-08-21T17:18:23.887Z,25.38
2022-08-21T17:20:50.981Z,27.10
2022-08-21T17:23:19.702Z,24.27
2022-08-21T17:25:51.418Z,27.08
2022-08-21T17:28:25.931Z,26.75
2022-08-21T17:30:56.154Z,26.92
2022-08-21T17:33:25.495Z,25.67
2022-08-21T17:35:53.814Z,25.90
2022-08-21T17:38:21.311Z,27.35
2022-08-21T17:40:48.761Z,22.55
2022-08-21T17:43:15.849Z,22.90
2022-08-21T17:45:44.179Z,21.73
2022-08-21T17:48:12.146Z,22.85
2022-08-21T17:50:40.011Z,22.83
2022-08-21T17:53:07.262Z,21.50
2022-08-21T17:55:34.921Z,22.27
2022-08-21T17:58:03.760Z,26.13
2022-08-21T18:00:32.395Z,21.98
2022-08-21T18:03:04.668Z,23.83
2022-08-21T18:05:31.812Z,26.02
2022-08-21T18:07:59.532Z,25.73
2022-08-21T18:10:27.348Z,23.52
2022-08-21T18:12:54.703Z,25.80
2022-08-21T18:15:22.288Z,26.63
2022-08-21T18:17:51.053Z,24.67
2022-08-21T18:20:21.087Z,23.52
2022-08-21T18:22:48.154Z,27.38
2022-08-21T18:25:15.674Z,28.77
2022-08-21T18:27:46.116Z,26.35
2022-08-21T18:30:22.464Z,27.65
2022-08-21T18:32:52.111Z,27.15
2022-08-21T18:35:19.649Z,24.95
2022-08-21T18:37:46.689Z,27.83
2022-08-21T18:40:14.193Z,25.40
2022-08-21T18:42:47.865Z,26.60
2022-08-21T18:45:23.337Z,28.08
2022-08-21T18:47:53.457Z,25.85
2022-08-21T18:50:26.421Z,25.20
2022-08-21T18:53:18.210Z,27.20
2022-08-21T18:55:43.340Z,28.85
2022-08-21T18:58:11.671Z,22.88
2022-08-21T19:00:45.957Z,26.35
2022-08-21T19:03:23.857Z,25.45
2022-08-21T19:05:53.506Z,25.10
2022-08-21T19:08:23.537Z,27.15
2022-08-21T19:10:54.964Z,24.45
2022-08-21T19:13:23.041Z,28.10
2022-08-21T19:15:53.057Z,24.10
2022-08-21T19:18:27.932Z,23.15
2022-08-21T19:21:11.985Z,26.98
2022-08-21T19:23:40.362Z,24.90
2022-08-21T19:26:10.764Z,25.40
2022-08-21T19:28:44.738Z,25.00
2022-08-21T19:31:23.805Z,25.70
2022-08-21T19:34:09.829Z,23.95
2022-08-21T19:36:39.316Z,27.02
2022-08-21T19:39:11.171Z,23.92
2022-08-21T19:41:42.460Z,25.38
2022-08-21T19:44:14.086Z,24.30
2022-08-21T19:46:44.783Z,25.95
2022-08-21T19:49:16.038Z,24.30
2022-08-21T19:51:44.249Z,22.63
2022-08-21T19:54:22.060Z,20.27
2022-08-21T19:56:50.621Z,23.73
2022-08-21T19:59:19.131Z,21.55
2022-08-21T20:01:56.071Z,24.80
2022-08-21T20:04:23.273Z,24.13
2022-08-21T20:06:52.486Z,20.15
2022-08-21T20:09:20.683Z,21.30
2022-08-21T20:11:52.416Z,23.15
2022-08-21T20:14:22.399Z,19.73
2022-08-21T20:16:52.727Z,22.33
2022-08-21T20:19:21.939Z,19.88
2022-08-21T20:21:49.404Z,19.65
2022-08-21T20:24:16.727Z,19.60
2022-08-21T20:29:39.322Z,21.92
2022-08-21T20:32:12.078Z,20.13
2022-08-21T20:34:40.941Z,19.58
2022-08-21T20:37:09.347Z,18.73
2022-08-21T20:39:55.483Z,19.00
2022-08-21T20:42:24.929Z,19.47
2022-08-21T20:44:53.825Z,17.67
2022-08-21T20:47:21.168Z,19.93
2022-08-21T20:49:55.817Z,19.30
2022-08-21T20:52:27.125Z,18.60
2022-08-21T20:55:03.921Z,16.70
2022-08-21T20:57:57.365Z,19.98
2022-08-21T21:00:27.523Z,18.27
2022-08-21T21:03:26.363Z,16.73
2022-08-21T21:06:26.486Z,16.73
2022-08-21T21:08:59.861Z,19.85
2022-08-21T21:11:39.855Z,18.83
2022-08-21T21:14:24.167Z,18.77
2022-08-21T21:16:59.189Z,25.60
2022-08-21T21:19:37.952Z,28.98
2022-08-21T21:22:11.267Z,43.63
2022-08-21T21:24:59.597Z,36.78
2022-08-21T21:27:40.091Z,44.97
2022-08-21T21:30:20.992Z,42.72
2022-08-21T21:32:48.540Z,41.35
2022-08-21T21:35:17.480Z,46.20
2022-08-21T21:38:16.856Z,46.15
2022-08-21T21:40:59.705Z,49.17
2022-08-21T21:43:32.337Z,63.72
2022-08-21T21:46:02.641Z,52.53
2022-08-21T21:48:32.211Z,56.38
2022-08-21T21:51:26.892Z,53.05
2022-08-21T21:54:04.066Z,56.03
2022-08-21T21:56:53.681Z,57.35
2022-08-21T21:59:37.018Z,60.13
2022-08-21T22:02:11.985Z,62.28
2022-08-21T22:04:56.861Z,58.55
2022-08-21T22:07:36.566Z,61.67
2022-08-21T22:10:57.565Z,66.43
2022-08-21T22:13:33.445Z,67.72
2022-08-21T22:16:07.636Z,72.65
2022-08-21T22:18:47.482Z,70.07
2022-08-21T22:21:32.959Z,78.95
2022-08-21T22:24:12.794Z,75.53
2022-08-21T22:29:16.825Z,74.28
2022-08-21T22:31:59.791Z,84.07
2022-08-21T22:34:28.894Z,72.72
2022-08-21T22:37:00.013Z,74.68
2022-08-21T22:42:25.834Z,73.88
2022-08-21T22:44:59.574Z,76.05
2022-08-21T22:47:41.674Z,81.35
2022-08-21T22:50:27.944Z,83.18
2022-08-21T22:53:02.283Z,85.35
2022-08-21T22:55:55.514Z,81.15
2022-08-21T22:58:27.794Z,84.75
2022-08-21T23:01:00.524Z,85.57
2022-08-21T23:03:43.560Z,88.43
2022-08-21T23:06:34.637Z,79.95
2022-08-21T23:09:09.698Z,83.22
2022-08-21T23:11:43.477Z,84.75
2022-08-21T23:14:14.291Z,93.93
2022-08-21T23:16:58.100Z,81.07
2022-08-21T23:19:40.349Z,84.00
2022-08-21T23:22:41.447Z,83.15
2022-08-21T23:25:36.010Z,88.20
2022-08-21T23:28:16.698Z,87.13
2022-08-21T23:30:58.300Z,83.10
2022-08-21T23:33:52.845Z,79.90
2022-08-21T23:36:55.617Z,83.75
2022-08-21T23:39:37.541Z,79.57
2022-08-21T23:42:45.716Z,80.45
2022-08-21T23:45:34.880Z,80.90
2022-08-21T23:48:21.506Z,81.63
2022-08-21T23:51:10.865Z,79.30
2022-08-21T23:54:05.288Z,77.57
2022-08-21T23:56:32.890Z,81.40
2022-08-21T23:59:12.073Z,80.93
